createdAt,value
2023-08-07T00:00:00.540Z,12.40
2023-08-07T00:02:33.046Z,12.30
2023-08-07T00:05:03.068Z,12.30
2023-08-07T00:07:33.231Z,12.30
2023-08-07T00:10:04.618Z,12.30
2023-08-07T00:12:34.557Z,12.40
2023-08-07T00:15:05.650Z,12.40
2023-08-07T00:17:38.152Z,12.30
2023-08-07T00:20:09.658Z,12.30
2023-08-07T00:22:39.592Z,12.30
2023-08-07T00:25:10.086Z,12.30
2023-08-07T00:27:39.937Z,12.30
2023-08-07T00:30:11.229Z,12.30
2023-08-07T00:32:43.750Z,12.30
2023-08-07T00:35:13.689Z,12.30
2023-08-07T00:37:43.568Z,12.30
2023-08-07T00:40:14.673Z,12.30
2023-08-07T00:42:44.627Z,12.40
2023-08-07T00:45:14.513Z,12.40
2023-08-07T00:47:47.202Z,12.40
2023-08-07T00:50:17.468Z,12.50
2023-08-07T00:52:47.429Z,12.50
2023-08-07T00:55:17.343Z,12.50
2023-08-07T00:57:47.543Z,12.50
2023-08-07T01:00:19.396Z,12.50
2023-08-07T01:02:52.952Z,12.50
2023-08-07T01:05:22.966Z,12.50
2023-08-07T01:07:55.680Z,12.50
2023-08-07T01:10:33.425Z,12.50
2023-08-07T01:13:11.522Z,12.50
2023-08-07T01:15:42.299Z,12.40
2023-08-07T01:18:15.727Z,12.40
2023-08-07T01:20:45.618Z,12.40
2023-08-07T01:23:18.088Z,12.40
2023-08-07T01:25:48.142Z,12.40
2023-08-07T01:28:22.818Z,12.40
2023-08-07T01:30:58.373Z,12.40
2023-08-07T01:33:34.999Z,12.40
2023-08-07T01:36:09.034Z,12.40
2023-08-07T01:38:42.096Z,12.40
2023-08-07T01:41:12.642Z,12.40
2023-08-07T01:43:42.542Z,12.50
2023-08-07T01:46:12.423Z,12.50
2023-08-07T01:48:42.341Z,12.40
2023-08-07T01:51:12.198Z,12.40
2023-08-07T01:53:44.709Z,12.40
2023-08-07T01:56:14.668Z,12.40
2023-08-07T01:58:44.564Z,12.40
2023-08-07T02:01:17.269Z,12.40
2023-08-07T02:03:47.159Z,12.40
2023-08-07T02:06:17.059Z,12.40
2023-08-07T02:08:49.561Z,12.40
2023-08-07T02:11:19.438Z,12.40
2023-08-07T02:13:49.327Z,12.40
2023-08-07T02:16:19.288Z,12.40
2023-08-07T02:18:49.248Z,12.40
2023-08-07T02:21:19.123Z,12.30
2023-08-07T02:23:51.589Z,12.30
2023-08-07T02:26:21.446Z,12.30
2023-08-07T02:28:51.325Z,12.30
2023-08-07T02:31:21.194Z,12.20
2023-08-07T02:33:51.064Z,12.30
2023-08-07T02:36:20.926Z,12.30
2023-08-07T02:38:53.369Z,12.20
2023-08-07T02:41:23.278Z,12.20
2023-08-07T02:43:53.170Z,12.20
2023-08-07T02:46:23.078Z,12.20
2023-08-07T02:48:54.013Z,12.20
2023-08-07T02:51:23.867Z,12.20
2023-08-07T02:53:56.350Z,12.20
2023-08-07T02:56:26.273Z,12.10
2023-08-07T02:58:56.145Z,12.10
2023-08-07T03:01:26.107Z,12.10
2023-08-07T03:03:55.958Z,12.10
2023-08-07T03:06:25.879Z,12.10
2023-08-07T03:08:59.179Z,12.10
2023-08-07T03:11:29.101Z,12.10
2023-08-07T03:13:58.982Z,12.10
2023-08-07T03:16:28.848Z,12.10
2023-08-07T03:18:58.737Z,12.10
2023-08-07T03:21:28.619Z,12.10
2023-08-07T03:24:01.142Z,12.10
2023-08-07T03:26:31.034Z,12.10
2023-08-07T03:29:00.914Z,12.10
2023-08-07T03:31:30.832Z,12.10
2023-08-07T03:34:00.695Z,12.20
2023-08-07T03:36:30.569Z,12.10
2023-08-07T03:39:03.009Z,12.20
2023-08-07T03:41:32.866Z,12.10
2023-08-07T03:44:02.735Z,12.10
2023-08-07T03:46:32.602Z,12.10
2023-08-07T03:49:02.507Z,12.10
2023-08-07T03:51:33.419Z,12.20
2023-08-07T03:54:05.960Z,12.10
2023-08-07T03:56:37.811Z,12.10
2023-08-07T03:59:08.051Z,12.10
2023-08-07T04:01:37.947Z,12.20
2023-08-07T04:04:07.970Z,12.20
2023-08-07T04:06:38.058Z,12.10
2023-08-07T04:09:11.780Z,12.10
2023-08-07T04:11:41.668Z,12.10
2023-08-07T04:14:12.192Z,12.10
2023-08-07T04:16:42.075Z,12.20
2023-08-07T04:19:11.954Z,12.20
2023-08-07T04:21:41.931Z,12.20
2023-08-07T04:24:14.383Z,12.20
2023-08-07T04:26:44.254Z,12.20
2023-08-07T04:29:14.141Z,12.30
2023-08-07T04:31:44.006Z,12.20
2023-08-07T04:34:13.873Z,12.30
2023-08-07T04:36:43.737Z,12.30
2023-08-07T04:39:16.754Z,12.30
2023-08-07T04:41:46.616Z,12.30
2023-08-07T04:44:16.525Z,12.30
2023-08-07T04:46:46.457Z,12.30
2023-08-07T04:49:16.393Z,12.30
2023-08-07T04:51:46.257Z,12.30
2023-08-07T04:54:18.701Z,12.30
2023-08-07T04:56:49.698Z,12.30
2023-08-07T04:59:19.597Z,12.40
2023-08-07T05:01:49.451Z,12.30
2023-08-07T05:04:19.323Z,12.40
2023-08-07T05:06:50.047Z,12.30
2023-08-07T05:09:22.602Z,12.40
2023-08-07T05:11:52.512Z,12.40
2023-08-07T05:14:22.399Z,12.40
2023-08-07T05:16:52.468Z,12.40
2023-08-07T05:19:22.430Z,12.40
2023-08-07T05:21:52.517Z,12.40
2023-08-07T05:24:25.261Z,12.40
2023-08-07T05:26:55.191Z,12.40
2023-08-07T05:29:25.074Z,12.50
2023-08-07T05:31:55.187Z,12.50
2023-08-07T05:34:25.403Z,12.50
2023-08-07T05:36:55.267Z,12.50
2023-08-07T05:39:27.865Z,12.60
2023-08-07T05:41:58.995Z,12.60
2023-08-07T05:44:29.334Z,12.70
2023-08-07T05:46:59.240Z,12.70
2023-08-07T05:49:29.091Z,12.70
2023-08-07T05:51:59.164Z,12.70
2023-08-07T05:54:31.936Z,12.80
2023-08-07T05:57:01.795Z,12.80
2023-08-07T05:59:31.770Z,12.90
2023-08-07T06:02:01.844Z,13.00
2023-08-07T06:04:32.129Z,13.10
2023-08-07T06:07:01.971Z,13.30
2023-08-07T06:09:34.876Z,13.50
2023-08-07T06:12:04.751Z,13.60
2023-08-07T06:14:34.757Z,13.60
2023-08-07T06:17:04.677Z,13.50
2023-08-07T06:19:34.547Z,13.60
2023-08-07T06:22:04.525Z,13.90
2023-08-07T06:24:36.989Z,13.80
2023-08-07T06:27:07.836Z,13.90
2023-08-07T06:29:37.760Z,13.90
2023-08-07T06:32:08.780Z,13.90
2023-08-07T06:34:39.452Z,13.80
2023-08-07T06:37:09.804Z,14.30
2023-08-07T06:39:42.279Z,14.20
2023-08-07T06:42:12.444Z,14.00
2023-08-07T06:44:42.379Z,14.00
2023-08-07T06:47:12.383Z,14.00
2023-08-07T06:49:42.352Z,14.00
2023-08-07T06:52:12.228Z,14.00
2023-08-07T06:54:44.686Z,13.80
2023-08-07T06:57:14.604Z,14.10
2023-08-07T06:59:44.612Z,13.90
2023-08-07T07:02:14.600Z,14.10
2023-08-07T07:04:44.784Z,14.30
2023-08-07T07:07:14.675Z,14.40
2023-08-07T07:09:47.398Z,14.60
2023-08-07T07:12:17.354Z,14.40
2023-08-07T07:14:47.269Z,14.40
2023-08-07T07:17:17.214Z,14.70
2023-08-07T07:19:47.053Z,14.70
2023-08-07T07:22:16.972Z,14.50
2023-08-07T07:24:49.415Z,14.30
2023-08-07T07:27:21.647Z,14.20
2023-08-07T07:29:53.241Z,14.00
2023-08-07T07:32:23.208Z,14.00
2023-08-07T07:34:53.224Z,14.20
2023-08-07T07:37:23.142Z,14.20
2023-08-07T07:39:55.663Z,14.00
2023-08-07T07:42:25.593Z,14.30
2023-08-07T07:44:55.505Z,14.50
2023-08-07T07:47:25.499Z,14.20
2023-08-07T07:50:09.717Z,14.40
2023-08-07T07:52:39.741Z,14.50
2023-08-07T07:55:14.803Z,14.60
2023-08-07T07:57:45.788Z,14.70
2023-08-07T08:00:17.118Z,14.70
2023-08-07T08:02:47.700Z,14.60
2023-08-07T08:05:19.012Z,14.80
2023-08-07T08:07:49.058Z,14.60
2023-08-07T08:10:21.658Z,14.50
2023-08-07T08:12:51.593Z,14.90
2023-08-07T08:15:22.350Z,14.70
2023-08-07T08:17:52.587Z,14.50
2023-08-07T08:20:22.527Z,14.80
2023-08-07T08:22:52.386Z,14.70
2023-08-07T08:25:24.845Z,14.90
2023-08-07T08:27:56.209Z,14.90
2023-08-07T08:30:26.304Z,15.00
2023-08-07T08:32:56.276Z,14.90
2023-08-07T08:35:27.242Z,15.20
2023-08-07T08:37:57.678Z,15.30
2023-08-07T08:40:30.332Z,15.40
2023-08-07T08:43:00.898Z,15.20
2023-08-07T08:45:31.430Z,15.10
2023-08-07T08:48:06.463Z,15.50
2023-08-07T08:50:38.146Z,15.80
2023-08-07T08:53:11.705Z,15.90
2023-08-07T08:55:48.348Z,16.00
2023-08-07T08:58:20.471Z,16.00
2023-08-07T09:00:50.527Z,15.70
2023-08-07T09:03:22.291Z,15.70
2023-08-07T09:05:53.523Z,15.60
2023-08-07T09:08:25.146Z,15.60
2023-08-07T09:10:58.046Z,15.90
2023-08-07T09:13:28.537Z,15.60
2023-08-07T09:16:00.415Z,15.50
2023-08-07T09:18:30.532Z,16.00
2023-08-07T09:21:00.969Z,16.00
2023-08-07T09:23:31.410Z,16.10
2023-08-07T09:26:09.538Z,15.80
2023-08-07T09:28:39.971Z,16.50
2023-08-07T09:31:10.908Z,16.00
2023-08-07T09:33:43.246Z,15.70
2023-08-07T09:36:13.168Z,15.70
2023-08-07T09:38:43.088Z,15.90
2023-08-07T09:41:15.871Z,16.50
2023-08-07T09:43:45.938Z,16.20
2023-08-07T09:46:16.227Z,16.30
2023-08-07T09:48:47.771Z,17.20
2023-08-07T09:51:17.640Z,17.10
2023-08-07T09:53:47.800Z,16.50
2023-08-07T09:56:20.413Z,16.80
2023-08-07T09:58:53.365Z,16.60
2023-08-07T10:01:23.296Z,17.00
2023-08-07T10:03:53.472Z,17.00
2023-08-07T10:06:24.334Z,17.20
2023-08-07T10:08:55.056Z,16.70
2023-08-07T10:11:27.787Z,17.50
2023-08-07T10:13:58.672Z,17.90
2023-08-07T10:16:30.360Z,17.70
2023-08-07T10:19:00.369Z,17.40
2023-08-07T10:21:30.939Z,17.40
2023-08-07T10:24:02.497Z,17.20
2023-08-07T10:26:36.107Z,16.70
2023-08-07T10:29:08.359Z,17.10
2023-08-07T10:31:39.952Z,16.80
2023-08-07T10:34:09.911Z,16.50
2023-08-07T10:36:42.071Z,16.20
2023-08-07T10:39:12.883Z,16.00
2023-08-07T10:41:48.420Z,16.50
2023-08-07T10:44:22.715Z,16.70
2023-08-07T10:46:56.141Z,16.70
2023-08-07T10:49:37.285Z,16.50
2023-08-07T10:52:11.637Z,16.40
2023-08-07T10:54:44.565Z,16.50
2023-08-07T10:57:19.033Z,16.70
2023-08-07T10:59:53.314Z,16.90
2023-08-07T11:02:28.648Z,16.70
2023-08-07T11:04:58.928Z,16.60
2023-08-07T11:07:30.912Z,16.40
2023-08-07T11:10:03.093Z,16.20
2023-08-07T11:12:37.495Z,16.10
2023-08-07T11:15:08.527Z,16.10
2023-08-07T11:17:38.521Z,16.00
2023-08-07T11:20:09.968Z,16.30
2023-08-07T11:22:41.341Z,16.30
2023-08-07T11:25:16.706Z,16.30
2023-08-07T11:27:50.269Z,16.40
2023-08-07T11:30:20.503Z,16.50
2023-08-07T11:32:50.615Z,16.20
2023-08-07T11:35:20.918Z,16.60
2023-08-07T11:37:51.931Z,16.70
2023-08-07T11:40:22.093Z,16.60
2023-08-07T11:42:54.562Z,16.70
2023-08-07T11:45:24.703Z,16.50
2023-08-07T11:47:57.030Z,16.50
2023-08-07T11:50:27.117Z,16.40
2023-08-07T11:53:01.743Z,16.60
2023-08-07T11:55:33.709Z,16.40
2023-08-07T11:58:07.295Z,16.20
2023-08-07T12:00:37.597Z,16.40
2023-08-07T12:03:26.686Z,16.50
2023-08-07T12:05:57.353Z,16.60
2023-08-07T12:08:27.368Z,16.70
2023-08-07T12:10:58.202Z,16.90
2023-08-07T12:13:30.975Z,16.90
2023-08-07T12:16:01.992Z,17.30
2023-08-07T12:18:33.090Z,17.40
2023-08-07T12:21:04.726Z,17.70
2023-08-07T12:23:37.869Z,17.60
2023-08-07T12:26:09.364Z,17.10
2023-08-07T12:28:41.822Z,17.30
2023-08-07T12:31:11.735Z,17.30
2023-08-07T12:33:41.693Z,16.90
2023-08-07T12:38:45.145Z,17.80
2023-08-07T12:43:50.784Z,16.90
2023-08-07T12:48:53.540Z,17.90
2023-08-07T12:51:23.462Z,18.00
2023-08-07T12:53:53.522Z,18.10
2023-08-07T12:56:23.378Z,17.80
2023-08-07T12:58:55.835Z,17.70
2023-08-07T13:01:26.912Z,17.90
2023-08-07T13:03:56.877Z,17.60
2023-08-07T13:06:26.875Z,17.50
2023-08-07T13:08:57.429Z,17.20
2023-08-07T13:11:27.430Z,17.50
2023-08-07T13:13:59.972Z,17.50
2023-08-07T13:16:29.991Z,17.60
2023-08-07T13:19:00.030Z,17.80
2023-08-07T13:21:29.930Z,17.00
2023-08-07T13:23:59.832Z,17.00
2023-08-07T13:26:29.705Z,17.40
2023-08-07T13:29:02.183Z,17.80
2023-08-07T13:31:32.076Z,18.00
2023-08-07T13:34:02.040Z,18.40
2023-08-07T13:36:31.910Z,18.80
2023-08-07T13:39:01.831Z,18.60
2023-08-07T13:41:31.860Z,18.20
2023-08-07T13:44:04.445Z,18.20
2023-08-07T13:46:34.456Z,18.90
2023-08-07T13:49:04.910Z,18.20
2023-08-07T13:51:34.811Z,18.40
2023-08-07T13:54:04.689Z,18.60
2023-08-07T13:56:34.633Z,18.70
2023-08-07T13:59:07.105Z,18.50
2023-08-07T14:01:36.993Z,18.50
2023-08-07T14:04:07.504Z,18.70
2023-08-07T14:06:38.143Z,18.40
2023-08-07T14:09:10.477Z,18.30
2023-08-07T14:11:40.793Z,18.90
2023-08-07T14:14:13.336Z,18.90
2023-08-07T14:16:43.986Z,18.60
2023-08-07T14:19:14.498Z,18.70
2023-08-07T14:21:44.422Z,19.00
2023-08-07T14:24:14.304Z,18.60
2023-08-07T14:26:44.174Z,18.30
2023-08-07T14:29:16.956Z,18.10
2023-08-07T14:31:46.953Z,18.30
2023-08-07T14:34:16.853Z,18.50
2023-08-07T14:36:46.984Z,18.30
2023-08-07T14:39:16.875Z,18.50
2023-08-07T14:41:47.202Z,18.80
2023-08-07T14:44:19.684Z,19.10
2023-08-07T14:46:49.804Z,19.60
2023-08-07T14:49:19.677Z,19.70
2023-08-07T14:51:49.532Z,19.20
2023-08-07T14:54:19.567Z,18.90
2023-08-07T14:56:49.501Z,18.70
2023-08-07T14:59:21.986Z,18.20
2023-08-07T15:01:51.887Z,18.20
2023-08-07T15:04:21.879Z,18.20
2023-08-07T15:06:51.949Z,18.00
2023-08-07T15:09:21.840Z,17.60
2023-08-07T15:11:51.888Z,17.20
2023-08-07T15:14:24.389Z,17.10
2023-08-07T15:16:54.330Z,17.10
2023-08-07T15:19:24.237Z,17.20
2023-08-07T15:21:54.392Z,17.10
2023-08-07T15:24:24.285Z,17.50
2023-08-07T15:26:54.191Z,17.80
2023-08-07T15:29:26.897Z,18.30
2023-08-07T15:31:57.294Z,18.30
2023-08-07T15:34:27.459Z,18.30
2023-08-07T15:36:59.326Z,18.20
2023-08-07T15:39:29.501Z,18.20
2023-08-07T15:41:59.628Z,18.20
2023-08-07T15:44:32.440Z,18.20
2023-08-07T15:47:02.603Z,18.20
2023-08-07T15:49:32.473Z,18.10
2023-08-07T15:52:02.351Z,18.10
2023-08-07T15:54:32.222Z,18.20
2023-08-07T15:57:02.097Z,18.20
2023-08-07T15:59:34.556Z,18.40
2023-08-07T16:02:04.446Z,18.50
2023-08-07T16:04:34.600Z,18.40
2023-08-07T16:07:04.562Z,18.80
2023-08-07T16:09:34.973Z,18.90
2023-08-07T16:12:04.987Z,18.60
2023-08-07T16:14:38.994Z,18.50
2023-08-07T16:17:09.197Z,18.80
2023-08-07T16:19:39.118Z,18.80
2023-08-07T16:22:09.434Z,19.00
2023-08-07T16:24:39.457Z,18.90
2023-08-07T16:27:10.325Z,18.80
2023-08-07T16:29:42.848Z,19.00
2023-08-07T16:32:12.822Z,19.10
2023-08-07T16:34:42.704Z,18.70
2023-08-07T16:37:12.700Z,18.90
2023-08-07T16:39:43.438Z,19.20
2023-08-07T16:42:13.364Z,19.00
2023-08-07T16:44:45.823Z,18.80
2023-08-07T16:47:15.769Z,18.90
2023-08-07T16:49:46.652Z,19.00
2023-08-07T16:52:17.352Z,19.00
2023-08-07T16:54:49.612Z,19.30
2023-08-07T16:57:19.583Z,19.50
2023-08-07T16:59:52.135Z,19.30
2023-08-07T17:02:22.732Z,19.00
2023-08-07T17:04:52.702Z,18.80
2023-08-07T17:07:22.641Z,18.90
2023-08-07T17:09:52.513Z,18.60
2023-08-07T17:12:22.405Z,18.60
2023-08-07T17:14:55.399Z,18.90
2023-08-07T17:17:25.281Z,19.20
2023-08-07T17:19:55.227Z,18.90
2023-08-07T17:22:25.325Z,18.80
2023-08-07T17:24:55.405Z,18.90
2023-08-07T17:27:25.429Z,18.80
2023-08-07T17:29:57.951Z,18.80
2023-08-07T17:32:27.850Z,18.90
2023-08-07T17:34:58.794Z,18.80
2023-08-07T17:37:28.927Z,18.50
2023-08-07T17:39:58.821Z,18.40
2023-08-07T17:42:28.729Z,18.10
2023-08-07T17:45:01.469Z,18.00
2023-08-07T17:47:32.086Z,18.00
2023-08-07T17:50:02.205Z,17.90
2023-08-07T17:52:34.003Z,17.80
2023-08-07T17:55:04.954Z,17.80
2023-08-07T17:57:34.917Z,17.80
2023-08-07T18:00:08.790Z,17.70
2023-08-07T18:02:38.869Z,17.60
2023-08-07T18:05:10.584Z,17.60
2023-08-07T18:07:40.948Z,17.50
2023-08-07T18:10:12.737Z,17.50
2023-08-07T18:12:43.187Z,17.50
2023-08-07T18:15:15.817Z,17.40
2023-08-07T18:17:45.849Z,17.40
2023-08-07T18:20:15.766Z,17.30
2023-08-07T18:22:45.677Z,17.30
2023-08-07T18:25:15.654Z,17.20
2023-08-07T18:27:45.618Z,17.20
2023-08-07T18:30:20.500Z,17.10
2023-08-07T18:32:51.885Z,17.10
2023-08-07T18:35:22.648Z,17.00
2023-08-07T18:37:52.528Z,16.90
2023-08-07T18:40:22.930Z,16.90
2023-08-07T18:42:52.818Z,16.80
2023-08-07T18:45:25.288Z,16.80
2023-08-07T18:47:55.196Z,16.70
2023-08-07T18:50:25.507Z,16.60
2023-08-07T18:52:55.396Z,16.50
2023-08-07T18:55:25.252Z,16.50
2023-08-07T18:57:55.208Z,16.40
2023-08-07T19:00:27.793Z,16.30
2023-08-07T19:02:57.747Z,16.20
2023-08-07T19:05:27.863Z,16.20
2023-08-07T19:07:57.764Z,16.10
2023-08-07T19:10:27.714Z,16.10
2023-08-07T19:12:57.654Z,16.10
2023-08-07T19:15:30.255Z,16.00
2023-08-07T19:18:00.237Z,16.00
2023-08-07T19:20:30.256Z,15.90
2023-08-07T19:23:00.230Z,15.80
2023-08-07T19:25:30.318Z,15.80
2023-08-07T19:28:00.218Z,15.70
2023-08-07T19:30:32.736Z,15.70
2023-08-07T19:33:02.753Z,15.60
2023-08-07T19:35:32.640Z,15.60
2023-08-07T19:38:02.512Z,15.60
2023-08-07T19:40:32.396Z,15.50
2023-08-07T19:43:03.032Z,15.40
2023-08-07T19:45:36.419Z,15.40
2023-08-07T19:48:06.940Z,15.30
2023-08-07T19:50:36.852Z,15.40
2023-08-07T19:53:07.078Z,15.30
2023-08-07T19:55:36.974Z,15.20
2023-08-07T19:58:07.468Z,15.20
2023-08-07T20:00:39.935Z,15.20
2023-08-07T20:03:09.873Z,15.10
2023-08-07T20:05:39.794Z,15.00
2023-08-07T20:08:10.072Z,15.00
2023-08-07T20:10:40.010Z,14.90
2023-08-07T20:13:09.932Z,14.90
2023-08-07T20:15:42.641Z,14.80
2023-08-07T20:18:12.621Z,14.80
2023-08-07T20:20:42.486Z,14.70
2023-08-07T20:23:12.381Z,14.70
2023-08-07T20:25:42.331Z,14.70
2023-08-07T20:28:12.232Z,14.60
2023-08-07T20:30:44.783Z,14.60
2023-08-07T20:33:14.902Z,14.60
2023-08-07T20:35:44.800Z,14.50
2023-08-07T20:38:14.735Z,14.50
2023-08-07T20:40:44.605Z,14.50
2023-08-07T20:43:14.537Z,14.50
2023-08-07T20:45:47.907Z,14.50
2023-08-07T20:48:17.899Z,14.50
2023-08-07T20:50:47.734Z,14.50
2023-08-07T20:53:17.644Z,14.50
2023-08-07T20:55:47.583Z,14.50
2023-08-07T20:58:17.429Z,14.40
2023-08-07T21:00:49.982Z,14.40
2023-08-07T21:03:20.051Z,14.40
2023-08-07T21:05:50.114Z,14.40
2023-08-07T21:08:20.141Z,14.30
2023-08-07T21:10:50.814Z,14.30
2023-08-07T21:13:20.684Z,14.30
2023-08-07T21:15:53.247Z,14.30
2023-08-07T21:18:23.153Z,14.30
2023-08-07T21:20:53.024Z,14.20
2023-08-07T21:23:22.894Z,14.20
2023-08-07T21:25:53.369Z,14.30
2023-08-07T21:28:23.311Z,14.30
2023-08-07T21:30:55.849Z,14.30
2023-08-07T21:33:27.436Z,14.30
2023-08-07T21:35:57.408Z,14.30
2023-08-07T21:38:27.274Z,14.30
2023-08-07T21:41:03.274Z,14.30
2023-08-07T21:43:33.144Z,14.30
2023-08-07T21:46:05.811Z,14.30
2023-08-07T21:48:35.805Z,14.30
2023-08-07T21:51:05.759Z,14.40
2023-08-07T21:53:35.642Z,14.40
2023-08-07T21:56:05.972Z,14.40
2023-08-07T21:58:35.898Z,14.40
2023-08-07T22:01:08.430Z,14.40
2023-08-07T22:03:38.500Z,14.40
2023-08-07T22:06:08.489Z,14.40
2023-08-07T22:08:38.399Z,14.30
2023-08-07T22:11:08.338Z,14.30
2023-08-07T22:13:38.262Z,14.20
2023-08-07T22:16:10.857Z,14.20
2023-08-07T22:18:40.855Z,14.20
2023-08-07T22:21:10.740Z,14.20
2023-08-07T22:23:40.601Z,14.10
2023-08-07T22:26:10.525Z,14.10
2023-08-07T22:28:40.540Z,14.10
2023-08-07T22:31:13.094Z,14.10
2023-08-07T22:33:43.140Z,14.10
2023-08-07T22:36:15.931Z,14.00
2023-08-07T22:38:45.978Z,14.00
2023-08-07T22:41:15.882Z,14.00
2023-08-07T22:43:45.827Z,14.00
2023-08-07T22:46:18.319Z,14.00
2023-08-07T22:48:48.217Z,13.90
2023-08-07T22:51:18.119Z,13.90
2023-08-07T22:53:48.045Z,13.90
2023-08-07T22:56:17.967Z,13.90
2023-08-07T22:58:47.871Z,13.80
2023-08-07T23:01:20.351Z,13.80
2023-08-07T23:03:50.348Z,13.80
2023-08-07T23:06:20.224Z,13.80
2023-08-07T23:08:50.118Z,13.80
2023-08-07T23:11:20.053Z,13.80
2023-08-07T23:13:49.933Z,13.80
2023-08-07T23:16:22.748Z,13.80
2023-08-07T23:18:52.686Z,13.70
2023-08-07T23:21:22.619Z,13.70
2023-08-07T23:23:52.666Z,13.70
2023-08-07T23:26:22.553Z,13.70
2023-08-07T23:28:52.426Z,13.60
2023-08-07T23:31:24.955Z,13.60
2023-08-07T23:33:54.896Z,13.70
2023-08-07T23:36:24.831Z,13.60
2023-08-07T23:38:54.793Z,13.60
2023-08-07T23:41:24.670Z,13.70
2023-08-07T23:43:54.748Z,13.70
2023-08-07T23:46:27.823Z,13.60
2023-08-07T23:48:57.872Z,13.70
2023-08-07T23:51:27.946Z,13.70
2023-08-07T23:53:57.959Z,13.70
2023-08-07T23:56:27.820Z,13.70
2023-08-07T23:58:57.685Z,13.60
